Latest Weather Observations for Mandurah

IDW60901

Issued at 3:31 am WST Wednesday 25 May 2016 (issued every 10 minutes, with the page automatically refreshed every 10 minutes)

About weather observations | Map of Perth area stations | Latest observations for Perth area | Other Formats
Station Details ID: 009977 Name: MANDURAH Lat: -32.52 Lon: 115.71 Height: 3.0 m
Data from the previous 72 hours. | See also: Recent months at Mandurah
Date/Time
WST
Tmp

°C
App
Tmp
°C
Dew
Point
°C
Rel
Hum
%
Delta-T

°C
Wind Press
QNH
hPa
Press
MSL
hPa
Rain
since
9 am
mm
Dir
 
Spd
km/h
Gust
km/h
Spd
kts
Gust
kts
25/03:30am 16.1 11.2 6.8 54 4.6 W 22 33 12 18 1010.0 1010.0 1.8
25/03:00am 15.2 13.6 8.9 66 3.2 SW 7 11 4 6 1010.2 1010.2 1.8
25/02:30am 14.9 13.1 9.5 70 2.8 SW 9 17 5 9 1010.3 1010.3 1.8
25/02:00am 15.3 11.5 9.0 66 3.2 SW 19 32 10 17 1010.2 1010.2 1.8
25/01:30am 15.4 12.1 9.7 69 3.0 WSW 17 32 9 17 1010.1 1010.1 1.8
25/01:00am 15.2 12.3 9.8 70 2.8 WSW 15 22 8 12 1010.1 1010.1 1.8
25/12:30am 13.8 13.0 11.1 84 1.4 NE 6 7 3 4 1010.2 1010.2 1.8
25/12:00am 14.4 13.6 9.6 73 2.5 SSW 4 6 2 3 1010.2 1010.2 1.8
 
Date/Time
WST
Tmp

°C
App
Tmp
°C
Dew
Point
°C
Rel
Hum
%
Delta-T

°C
Wind Press
QNH
hPa
Press
MSL
hPa
Rain
since
9 am
mm
Dir
 
Spd
km/h
Gust
km/h
Spd
kts
Gust
kts
24/11:30pm 14.1 12.6 12.0 87 1.1 W 11 26 6 14 1010.3 1010.3 1.8
24/11:00pm 13.0 12.7 11.4 90 0.8 E 4 6 2 3 1010.3 1010.3 1.8
24/10:30pm 13.4 12.7 11.3 87 1.1 ESE 6 9 3 5 1010.6 1010.6 1.8
24/10:00pm 14.5 13.5 10.9 79 1.9 SE 7 11 4 6 1010.4 1010.4 1.8
24/09:30pm 15.7 12.7 9.1 65 3.4 WNW 15 19 8 10 1010.4 1010.4 1.8
24/09:00pm 13.8 11.6 12.0 89 1.0 WSW 15 24 8 13 1010.7 1010.7 1.8
24/08:30pm 13.9 14.3 11.1 83 1.5 CALM 0 4 0 2 1010.4 1010.4 0.8
24/08:00pm 14.3 12.7 11.5 83 1.5 S 11 15 6 8 1010.4 1010.4 0.8
24/07:30pm 13.6 13.3 11.3 86 1.2 WSW 4 6 2 3 1010.4 1010.4 0.8
24/07:00pm 14.0 13.5 10.8 81 1.7 S 4 6 2 3 1010.3 1010.3 0.8
24/06:30pm 14.0 12.7 11.3 84 1.4 SSW 9 22 5 12 1010.0 1010.0 0.8
24/06:00pm 14.2 10.9 11.7 85 1.3 SW 20 30 11 16 1009.7 1009.7 0.6
24/05:44pm 15.0 12.0 12.0 82 1.6 WSW 19 39 10 21 1009.3 1009.3 0.6
24/05:30pm 14.2 14.7 11.7 85 1.3 CALM 0 2 0 1 1008.9 1008.9 0.6
24/05:00pm 14.2 14.5 12.1 87 1.1 SW 2 6 1 3 1008.8 1008.8 0.6
24/04:30pm 13.9 10.5 11.2 84 1.4 SSW 20 33 11 18 1008.7 1008.7 0.6
24/04:17pm 15.8 12.2 10.6 71 2.8 WSW 20 43 11 23 1008.7 1008.7 0.0
24/04:00pm 16.5 14.3 9.4 63 3.7 SW 11 17 6 9 1008.3 1008.3 0.0
24/03:30pm 16.9 13.4 8.6 58 4.3 WSW 17 24 9 13 1008.0 1008.0 0.0
24/03:00pm 17.3 13.6 10.2 63 3.8 WSW 20 32 11 17 1007.8 1007.8 0.0
24/02:30pm 16.3 14.8 10.6 69 3.0 SW 9 13 5 7 1007.5 1007.5 0.0
24/02:00pm 16.6 13.2 10.5 67 3.2 SW 19 28 10 15 1007.4 1007.4 0.0
24/01:30pm 17.6 14.0 10.5 63 3.8 WSW 20 32 11 17 1007.0 1007.0 0.0
24/01:00pm 16.2 15.6 11.6 74 2.5 SSW 6 11 3 6 1007.0 1007.0 0.0
24/12:30pm 17.3 13.3 10.4 64 3.7 SW 22 35 12 19 1007.3 1007.3 0.0
24/12:00pm 17.2 13.7 10.1 63 3.8 SW 19 30 10 16 1007.3 1007.3 0.0
24/11:30am 17.4 13.2 9.6 60 4.1 SW 22 39 12 21 1007.3 1007.3 0.0
24/11:00am 17.8 13.6 9.7 59 4.3 SW 22 33 12 18 1007.2 1007.2 0.0
24/10:30am 17.6 14.7 9.8 60 4.1 WSW 15 24 8 13 1007.1 1007.1 0.0
24/10:00am 18.0 13.3 7.7 51 5.2 WSW 22 32 12 17 1007.0 1007.0 0.0
24/09:30am 17.9 13.1 7.3 50 5.3 WSW 22 35 12 19 1006.8 1006.8 0.0
24/09:00am 17.6 12.1 9.2 58 4.4 WSW 28 41 15 22 1006.6 1006.6 10.2
24/08:30am 17.6 13.5 10.2 62 3.9 WSW 22 35 12 19 1006.1 1006.1 10.2
24/08:00am 17.6 13.3 10.9 65 3.6 SW 24 35 13 19 1005.5 1005.5 10.2
24/07:30am 17.8 13.7 11.4 66 3.5 WSW 24 35 13 19 1004.7 1004.7 10.2
24/07:00am 17.4 13.3 12.7 74 2.6 SW 26 44 14 24 1003.9 1003.9 10.2
24/06:34am 17.5 12.8 13.2 76 2.4 SW 30 50 16 27 1003.4 1003.4 10.2
24/06:30am 17.4 13.1 13.3 77 2.3 SW 28 41 15 22 1003.3 1003.3 10.2
24/06:00am 17.7 14.2 15.5 87 1.3 SW 28 46 15 25 1002.7 1002.7 10.2
24/05:30am 17.6 15.7 17.6 100 0.0 SW 24 37 13 20 1001.9 1001.9 10.2
24/05:00am 17.2 14.7 17.2 100 0.0 WSW 26 41 14 22 1001.2 1001.2 10.2
24/04:50am 17.0 13.3 17.0 100 0.0 SW 32 50 17 27 1001.2 1001.2 10.2
24/04:37am 17.6 12.1 17.6 100 0.0 WNW 43 61 23 33 1001.1 1001.1 10.2
24/04:35am 18.0 12.1 18.0 100 0.0 NW 46 61 25 33 1001.0 1001.0 10.0
24/04:30am 19.1 13.7 19.1 100 0.0 NW 46 57 25 31 1000.0 1000.0 9.8
24/04:00am 18.6 13.3 18.6 100 0.0 NW 44 65 24 35 1000.1 1000.1 9.6
24/03:30am 18.4 11.9 18.4 100 0.0 NNW 50 72 27 39 999.9 999.9 7.6
24/03:29am 18.3 11.7 18.3 100 0.0 NNW 50 72 27 39 1000.0 1000.0 7.6
24/03:00am 17.9 10.4 17.9 100 0.0 NNW 54 70 29 38 1000.6 1000.6 6.8
24/02:40am 17.9 10.4 17.9 100 0.0 NNW 54 72 29 39 1000.9 1000.9 6.2
24/02:30am 18.0 11.3 18.0 100 0.0 NNW 50 65 27 35 1001.1 1001.1 5.6
24/02:00am 16.6 8.6 16.6 100 0.0 NNW 54 67 29 36 1001.7 1001.7 4.2
24/01:38am 16.9 9.3 16.6 98 0.2 NNW 52 76 28 41 1002.4 1002.4 2.4
24/01:30am 17.3 8.9 16.7 96 0.4 NNW 56 70 30 38 1002.7 1002.7 2.0
24/01:18am 17.6 11.6 17.0 96 0.4 NNW 44 65 24 35 1002.7 1002.7 2.0
24/01:00am 17.0 10.3 17.0 100 0.0 NNW 48 63 26 34 1003.1 1003.1 1.8
24/12:30am 17.9 12.1 17.4 97 0.3 NNW 44 69 24 37 1003.7 1003.7 0.6
24/12:28am 18.2 12.7 17.7 97 0.3 NNW 43 69 23 37 1003.7 1003.7 0.6
24/12:00am 18.5 12.3 15.9 85 1.5 NNW 43 54 23 29 1004.7 1004.7 0.2
 
Date/Time
WST
Tmp

°C
App
Tmp
°C
Dew
Point
°C
Rel
Hum
%
Delta-T

°C
Wind Press
QNH
hPa
Press
MSL
hPa
Rain
since
9 am
mm
Dir
 
Spd
km/h
Gust
km/h
Spd
kts
Gust
kts
23/11:30pm 19.2 11.6 14.7 75 2.6 NNW 48 61 26 33 1004.2 1004.2 0.0
23/11:00pm 19.3 12.7 14.8 75 2.6 NNW 43 57 23 31 1005.0 1005.0 0.0
23/10:55pm 19.4 13.0 14.4 73 2.9 NNW 41 57 22 31 1005.6 1005.6 0.0
23/10:30pm 18.3 14.4 15.6 84 1.6 N 30 39 16 21 1005.8 1005.8 0.0
23/10:00pm 19.4 13.4 14.4 73 2.9 N 39 48 21 26 1005.7 1005.7 0.0
23/09:30pm 19.2 12.9 14.7 75 2.6 N 41 50 22 27 1006.2 1006.2 0.0
23/09:00pm 19.3 12.3 13.7 70 3.2 N 43 52 23 28 1006.4 1006.4 0.0
23/08:30pm 19.2 13.2 13.4 69 3.3 NNW 37 46 20 25 1007.0 1007.0 0.0
23/08:00pm 19.2 13.3 13.6 70 3.2 NNW 37 48 20 26 1008.4 1008.4 0.0
23/07:30pm 19.2 12.3 12.9 67 3.5 NNW 41 50 22 27 1009.0 1009.0 0.0
23/07:00pm 18.8 13.7 13.2 70 3.2 N 32 41 17 22 1009.0 1009.0 0.0
23/06:30pm 18.5 12.7 11.6 64 3.8 N 33 43 18 23 1009.3 1009.3 0.0
23/06:00pm 18.5 13.3 11.6 64 3.8 N 30 37 16 20 1009.4 1009.4 0.0
23/05:30pm 18.5 12.1 10.8 61 4.2 N 35 43 19 23 1009.3 1009.3 0.0
23/05:00pm 18.4 11.2 10.5 60 4.2 N 39 48 21 26 1009.8 1009.8 0.0
23/04:30pm 18.4 12.1 11.0 62 4.0 N 35 44 19 24 1010.3 1010.3 0.0
23/04:00pm 18.3 12.3 10.9 62 4.0 N 33 41 18 22 1010.9 1010.9 0.0
23/03:30pm 18.2 11.4 10.8 62 4.0 N 37 48 20 26 1010.9 1010.9 0.0
23/03:00pm 18.4 11.1 10.3 59 4.3 N 39 46 21 25 1011.4 1011.4 0.0
23/02:30pm 18.3 11.1 10.7 61 4.1 N 39 48 21 26 1012.1 1012.1 0.0
23/02:00pm 18.4 11.5 10.3 59 4.3 N 37 48 20 26 1012.9 1012.9 0.0
23/01:30pm 18.3 11.7 11.4 64 3.8 N 37 50 20 27 1013.7 1013.7 0.0
23/01:00pm 18.3 11.3 11.1 63 3.9 N 39 48 21 26 1014.4 1014.4 0.0
23/12:30pm 18.2 10.9 11.5 65 3.7 N 41 50 22 27 1015.2 1015.2 0.0
23/12:00pm 18.1 11.1 11.4 65 3.6 N 39 48 21 26 1015.9 1015.9 0.0
23/11:30am 17.9 11.8 11.7 67 3.4 N 35 44 19 24 1016.8 1016.8 0.0
23/11:00am 17.4 10.8 11.2 67 3.3 N 37 48 20 26 1017.4 1017.4 0.0
23/10:30am 17.1 11.4 11.2 68 3.2 N 32 39 17 21 1018.2 1018.2 0.0
23/10:00am 16.3 11.9 11.7 74 2.5 N 26 33 14 18 1018.7 1018.7 0.0
23/09:30am 15.3 10.1 11.5 78 2.0 N 30 35 16 19 1018.7 1018.7 0.0
23/09:00am 14.9 9.9 12.2 84 1.5 NNE 30 35 16 19 1018.8 1018.8 2.6
23/08:30am 14.5 10.3 12.4 87 1.1 N 26 32 14 17 1018.9 1018.9 2.6
23/08:00am 14.4 10.2 12.4 88 1.1 NNE 26 30 14 16 1018.7 1018.7 2.6
23/07:30am 14.1 11.1 12.7 91 0.8 NNE 20 26 11 14 1019.0 1019.0 2.6
23/07:00am 14.3 11.4 12.9 91 0.8 NNE 20 24 11 13 1018.8 1018.8 2.6
23/06:30am 14.7 11.4 13.9 95 0.4 NNE 24 28 13 15 1019.1 1019.1 2.6
23/06:00am 14.4 12.1 14.2 99 0.1 NNE 19 22 10 12 1019.1 1019.1 2.6
23/05:30am 14.7 13.4 14.7 100 0.0 NNE 15 19 8 10 1019.3 1019.3 2.6
23/05:00am 15.1 15.0 14.9 99 0.1 NNE 9 13 5 7 1019.3 1019.3 2.6
23/04:30am 15.5 14.0 15.2 98 0.2 NNE 17 22 9 12 1019.1 1019.1 2.2
23/04:00am 15.3 14.5 15.1 99 0.1 NNE 13 24 7 13 1019.2 1019.2 2.2
23/03:30am 15.6 16.3 14.5 93 0.6 ENE 4 9 2 5 1019.4 1019.4 2.2
23/03:00am 15.9 15.4 13.9 88 1.1 NNE 9 15 5 8 1019.5 1019.5 2.2
23/02:30am 16.1 16.2 13.8 86 1.3 W 6 9 3 5 1019.3 1019.3 2.2
23/02:00am 16.8 15.5 14.8 88 1.1 WNW 15 22 8 12 1019.4 1019.4 2.2
23/01:38am 16.7 14.3 14.3 86 1.4 NW 20 39 11 21 1019.5 1019.5 2.0
23/01:30am 16.9 16.4 14.9 88 1.2 NW 11 19 6 10 1019.6 1019.6 2.0
23/01:00am 16.9 15.5 14.5 86 1.4 W 15 30 8 16 1020.0 1020.0 1.6
23/12:30am 17.1 15.8 13.6 80 2.0 W 13 17 7 9 1020.0 1020.0 1.6
23/12:00am 17.1 15.2 14.2 83 1.7 WNW 17 22 9 12 1020.1 1020.1 1.4
 
Date/Time
WST
Tmp

°C
App
Tmp
°C
Dew
Point
°C
Rel
Hum
%
Delta-T

°C
Wind Press
QNH
hPa
Press
MSL
hPa
Rain
since
9 am
mm
Dir
 
Spd
km/h
Gust
km/h
Spd
kts
Gust
kts
22/11:30pm 17.0 14.7 14.6 86 1.4 WNW 20 26 11 14 1020.2 1020.2 1.4
22/11:00pm 16.2 13.7 15.1 93 0.6 WNW 22 32 12 17 1020.7 1020.7 1.4
22/10:30pm 17.4 15.0 13.9 80 2.0 W 19 26 10 14 1020.7 1020.7 1.4
22/10:00pm 17.4 14.7 12.9 75 2.5 W 19 26 10 14 1020.6 1020.6 1.4
22/09:30pm 17.6 14.5 13.5 77 2.3 W 22 26 12 14 1020.5 1020.5 1.4
22/09:00pm 17.4 14.7 14.5 83 1.7 WNW 22 30 12 16 1020.0 1020.0 1.4
22/08:30pm 17.0 13.6 14.8 87 1.3 WNW 26 30 14 16 1019.7 1019.7 1.4
22/08:00pm 17.0 14.9 15.3 90 1.0 WNW 20 26 11 14 1019.3 1019.3 1.4
22/07:30pm 16.7 13.9 15.4 92 0.8 NW 24 30 13 16 1019.3 1019.3 1.2
22/07:00pm 16.8 14.6 15.0 89 1.0 WNW 20 26 11 14 1018.9 1018.9 1.2
22/06:30pm 16.0 14.7 14.7 92 0.7 SW 15 26 8 14 1018.5 1018.5 1.2
22/06:00pm 17.5 13.9 14.2 81 1.9 WNW 26 32 14 17 1018.3 1018.3 0.8
22/05:30pm 17.6 13.3 13.1 75 2.5 W 28 35 15 19 1018.3 1018.3 0.8
22/05:00pm 17.2 13.8 14.7 85 1.4 W 26 39 14 21 1018.4 1018.4 0.8
22/04:30pm 16.4 12.9 15.4 94 0.6 W 28 37 15 20 1018.5 1018.5 0.8
22/04:00pm 17.4 13.3 13.9 80 2.0 WNW 28 39 15 21 1018.1 1018.1 0.4
22/03:34pm 17.3 12.9 14.0 81 1.9 WNW 30 48 16 26 1018.1 1018.1 0.4
22/03:30pm 17.6 13.8 13.7 78 2.2 WNW 26 39 14 21 1018.0 1018.0 0.4
22/03:00pm 17.2 14.2 13.7 80 2.0 WNW 22 30 12 16 1017.9 1017.9 0.0
22/02:30pm 17.8 11.9 12.3 70 3.0 WNW 35 43 19 23 1017.6 1017.6 0.0
22/02:00pm 18.1 12.4 11.2 64 3.7 WNW 32 39 17 21 1017.4 1017.4 0.0
22/01:30pm 18.4 13.1 11.2 63 3.9 WNW 30 39 16 21 1017.5 1017.5 0.0
22/01:00pm 18.3 13.7 10.9 62 4.0 WNW 26 35 14 19 1017.4 1017.4 0.0
22/12:30pm 18.6 12.9 9.9 57 4.6 W 30 39 16 21 1017.4 1017.4 0.0
22/12:00pm 18.8 14.5 10.6 59 4.4 W 24 39 13 21 1017.3 1017.3 0.0
22/11:30am 17.9 13.8 11.5 66 3.5 W 24 35 13 19 1017.6 1017.6 0.0
22/11:00am 18.1 14.0 11.4 65 3.6 W 24 33 13 18 1017.3 1017.3 0.0
22/10:30am 17.5 14.0 10.9 65 3.5 W 20 32 11 17 1017.1 1017.1 0.0
22/10:00am 18.1 14.4 10.2 60 4.2 W 20 33 11 18 1016.7 1016.7 0.0
22/09:30am 18.2 15.5 10.3 60 4.2 WSW 15 24 8 13 1016.5 1016.5 0.0
22/09:00am 17.1 14.0 10.2 64 3.6 WSW 17 26 9 14 1016.3 1016.3 5.2
22/08:30am 16.5 12.3 9.7 64 3.6 WSW 22 35 12 19 1015.8 1015.8 5.2
22/08:00am 15.8 12.5 9.7 67 3.2 WSW 17 26 9 14 1015.3 1015.3 5.2
22/07:30am 15.6 13.0 9.3 66 3.2 SW 13 28 7 15 1014.9 1014.9 5.2
22/07:00am 15.5 12.2 9.6 68 3.1 WSW 17 28 9 15 1014.5 1014.5 5.2
22/06:30am 14.9 11.3 9.7 71 2.7 SW 19 30 10 16 1014.3 1014.3 5.2
22/06:00am 13.7 11.8 10.5 81 1.7 WSW 11 22 6 12 1014.0 1014.0 5.2
22/05:30am 14.9 11.2 9.3 69 2.9 WSW 19 33 10 18 1013.6 1013.6 5.0
22/05:00am 14.3 11.6 10.3 77 2.1 WSW 15 24 8 13 1013.6 1013.6 5.0
22/04:30am 13.5 10.7 10.1 80 1.8 SW 15 28 8 15 1013.2 1013.2 5.0
22/04:00am 14.1 10.4 9.5 74 2.4 WSW 19 30 10 16 1013.1 1013.1 4.8

Latest Capital City Observations: Canberra | Sydney | Melbourne | Brisbane | Adelaide | Perth | Hobart | Darwin

Other Formats:

Comma delimited format used in spreadsheet applications
http://www.bom.gov.au/fwo/IDW60901/IDW60901.94605.axf

JavaScript Object Notation format (JSON) in row-major order
http://www.bom.gov.au/fwo/IDW60901/IDW60901.94605.json